createdAt,value
2019-04-30T00:00:59.643Z,91.68
2019-04-30T00:03:59.248Z,91.56
2019-04-30T00:06:28.875Z,91.90
2019-04-30T00:08:55.059Z,91.36
2019-04-30T00:11:25.035Z,92.27
2019-04-30T00:13:55.290Z,92.75
2019-04-30T00:16:21.713Z,92.80
2019-04-30T00:18:58.149Z,91.67
2019-04-30T00:21:18.838Z,91.15
2019-04-30T00:23:46.462Z,92.33
2019-04-30T00:26:16.989Z,91.20
2019-04-30T00:28:46.338Z,90.64
2019-04-30T00:31:12.278Z,91.20
2019-04-30T00:33:39.619Z,91.62
2019-04-30T00:36:06.918Z,91.52
2019-04-30T00:38:37.752Z,90.56
2019-04-30T00:41:06.833Z,91.38
2019-04-30T00:43:35.376Z,91.19
2019-04-30T00:46:02.702Z,91.78
2019-04-30T00:48:31.312Z,91.00
2019-04-30T00:50:58.842Z,90.56
2019-04-30T00:53:26.327Z,90.88
2019-04-30T00:55:57.203Z,91.57
2019-04-30T00:58:28.796Z,91.44
2019-04-30T01:01:15.286Z,91.19
2019-04-30T01:03:49.610Z,91.99
2019-04-30T01:06:17.279Z,91.74
2019-04-30T01:08:46.155Z,91.07
2019-04-30T01:11:15.328Z,90.79
2019-04-30T01:13:50.176Z,91.56
2019-04-30T01:16:13.914Z,90.07
2019-04-30T01:18:41.262Z,89.44
2019-04-30T01:21:11.192Z,90.88
2019-04-30T01:23:43.170Z,92.55
2019-04-30T01:26:08.727Z,92.84
2019-04-30T01:28:36.199Z,91.99
2019-04-30T01:31:03.662Z,91.01
2019-04-30T01:33:34.563Z,89.91
2019-04-30T01:36:04.203Z,90.84
2019-04-30T01:38:29.562Z,91.52
2019-04-30T01:40:56.902Z,92.33
2019-04-30T01:43:31.558Z,92.97
2019-04-30T01:45:53.477Z,91.64
2019-04-30T01:48:20.802Z,91.29
2019-04-30T01:50:48.841Z,92.21
2019-04-30T01:53:16.502Z,92.94
2019-04-30T01:55:53.866Z,93.15
2019-04-30T01:58:33.435Z,92.25
2019-04-30T02:01:04.179Z,90.88
2019-04-30T02:03:32.528Z,92.23
2019-04-30T02:05:59.818Z,92.63
2019-04-30T02:08:27.159Z,92.36
2019-04-30T02:10:54.480Z,92.00
2019-04-30T02:13:21.839Z,92.51
2019-04-30T02:15:49.376Z,92.92
2019-04-30T02:18:16.827Z,91.87
2019-04-30T02:20:44.142Z,90.69
2019-04-30T02:23:11.457Z,91.66
2019-04-30T02:25:39.918Z,92.67
2019-04-30T02:28:08.949Z,91.66
2019-04-30T02:30:36.356Z,91.32
2019-04-30T02:33:03.704Z,92.19
2019-04-30T02:35:53.160Z,92.66
2019-04-30T02:38:24.847Z,93.37
2019-04-30T02:40:52.684Z,92.73
2019-04-30T02:43:22.311Z,92.84
2019-04-30T02:45:50.994Z,93.21
2019-04-30T02:48:19.535Z,92.88
2019-04-30T02:50:49.122Z,92.68
2019-04-30T02:54:10.050Z,92.15
2019-04-30T02:56:40.077Z,91.33
2019-04-30T02:59:06.704Z,90.70
2019-04-30T03:01:34.041Z,90.99
2019-04-30T03:04:01.343Z,91.42
2019-04-30T03:06:30.295Z,92.36
2019-04-30T03:09:00.718Z,92.63
2019-04-30T03:11:29.902Z,91.48
2019-04-30T03:13:56.253Z,92.68
2019-04-30T03:16:30.327Z,92.80
2019-04-30T03:19:19.622Z,92.75
2019-04-30T03:21:51.667Z,92.46
2019-04-30T03:24:20.253Z,91.10
2019-04-30T03:26:49.972Z,90.36
2019-04-30T03:29:17.093Z,91.06
2019-04-30T03:31:45.675Z,91.10
2019-04-30T03:34:23.170Z,90.95
2019-04-30T03:36:42.400Z,91.89
2019-04-30T03:39:10.928Z,93.10
2019-04-30T03:41:41.468Z,92.20
2019-04-30T03:44:21.071Z,91.31
2019-04-30T03:46:39.791Z,91.51
2019-04-30T03:49:06.365Z,91.49
2019-04-30T03:51:33.658Z,90.49
2019-04-30T03:54:01.019Z,89.90
2019-04-30T03:56:29.845Z,91.15
2019-04-30T03:59:00.139Z,92.14
2019-04-30T04:01:46.227Z,91.31
2019-04-30T04:04:33.063Z,90.93
2019-04-30T04:07:31.813Z,91.91
2019-04-30T04:10:21.213Z,91.89
2019-04-30T04:12:49.880Z,91.53
2019-04-30T04:15:19.772Z,92.00
2019-04-30T04:17:46.620Z,90.79
2019-04-30T04:20:14.079Z,90.13
2019-04-30T04:22:41.342Z,91.35
2019-04-30T04:25:12.723Z,92.66
2019-04-30T04:27:39.270Z,92.53
2019-04-30T04:30:07.020Z,92.79
2019-04-30T04:32:34.371Z,91.97
2019-04-30T04:35:01.654Z,91.07
2019-04-30T04:37:30.210Z,91.14
2019-04-30T04:39:59.522Z,91.62
2019-04-30T04:42:32.529Z,92.93
2019-04-30T04:44:56.326Z,93.75
2019-04-30T04:47:23.634Z,93.66
2019-04-30T04:49:53.879Z,93.30
2019-04-30T04:52:21.654Z,93.10
2019-04-30T04:54:50.690Z,92.46
2019-04-30T04:57:22.393Z,91.35
2019-04-30T04:59:49.908Z,91.36
2019-04-30T05:02:49.767Z,90.86
2019-04-30T05:05:19.344Z,91.33
2019-04-30T05:07:48.492Z,92.34
2019-04-30T05:10:15.750Z,91.31
2019-04-30T05:12:43.078Z,91.03
2019-04-30T05:15:10.698Z,90.10
2019-04-30T05:17:39.750Z,90.74
2019-04-30T05:20:09.808Z,92.23
2019-04-30T05:22:38.903Z,92.04
2019-04-30T05:25:08.672Z,91.75
2019-04-30T05:27:35.876Z,91.21
2019-04-30T05:30:03.714Z,90.58
2019-04-30T05:32:31.074Z,90.94
2019-04-30T05:34:58.733Z,91.65
2019-04-30T05:37:26.299Z,92.53
2019-04-30T05:39:53.632Z,92.82
2019-04-30T05:42:21.014Z,92.95
2019-04-30T05:44:49.713Z,91.62
2019-04-30T05:47:19.371Z,92.38
2019-04-30T05:49:48.713Z,92.25
2019-04-30T05:52:15.758Z,91.16
2019-04-30T05:54:43.114Z,92.71
2019-04-30T05:57:10.438Z,92.86
2019-04-30T05:59:38.807Z,92.99
2019-04-30T06:02:06.476Z,93.38
2019-04-30T06:04:33.793Z,92.98
2019-04-30T06:07:01.166Z,92.06
2019-04-30T06:09:48.621Z,92.80
2019-04-30T06:12:29.243Z,92.33
2019-04-30T06:15:19.399Z,92.29
2019-04-30T06:17:59.973Z,91.90
2019-04-30T06:20:20.979Z,92.56
2019-04-30T06:22:52.115Z,91.94
2019-04-30T06:25:30.459Z,92.03
2019-04-30T06:27:48.872Z,90.93
2019-04-30T06:30:16.882Z,89.41
2019-04-30T06:32:44.389Z,89.85
2019-04-30T06:35:12.059Z,91.77
2019-04-30T06:37:39.474Z,92.08
2019-04-30T06:40:09.385Z,91.03
2019-04-30T06:42:36.782Z,91.23
2019-04-30T06:45:06.510Z,91.16
2019-04-30T06:47:34.016Z,91.77
2019-04-30T06:50:01.540Z,91.14
2019-04-30T06:52:29.352Z,90.71
2019-04-30T06:54:56.977Z,89.89
2019-04-30T06:57:24.303Z,90.12
2019-04-30T06:59:51.709Z,89.86
2019-04-30T07:02:19.745Z,90.26
2019-04-30T07:04:49.099Z,89.25
2019-04-30T07:07:19.313Z,89.46
2019-04-30T07:09:55.944Z,88.92
2019-04-30T07:12:40.139Z,88.61
2019-04-30T07:15:08.739Z,89.29
2019-04-30T07:17:36.330Z,89.41
2019-04-30T07:20:03.994Z,89.40
2019-04-30T07:22:39.790Z,89.54
2019-04-30T07:25:00.635Z,89.88
2019-04-30T07:27:31.934Z,89.73
2019-04-30T07:29:57.201Z,89.16
2019-04-30T07:32:24.571Z,89.48
2019-04-30T07:34:51.973Z,89.42
2019-04-30T07:37:24.182Z,89.88
2019-04-30T07:39:49.367Z,90.20
2019-04-30T07:42:19.051Z,91.10
2019-04-30T07:44:46.224Z,90.28
2019-04-30T07:47:14.160Z,90.74
2019-04-30T07:49:49.883Z,90.95
2019-04-30T07:52:11.806Z,91.41
2019-04-30T07:54:39.875Z,91.70
2019-04-30T07:57:07.180Z,92.76
2019-04-30T07:59:34.496Z,93.46
2019-04-30T08:02:10.194Z,93.05
2019-04-30T08:04:52.083Z,91.79
2019-04-30T08:07:20.148Z,91.15
2019-04-30T08:09:49.378Z,90.57
2019-04-30T08:12:25.898Z,90.03
2019-04-30T08:14:46.426Z,90.68
2019-04-30T08:17:13.714Z,89.52
2019-04-30T08:19:41.213Z,88.29
2019-04-30T08:22:09.571Z,88.50
2019-04-30T08:24:38.990Z,88.65
2019-04-30T08:27:06.374Z,88.05
2019-04-30T08:29:33.716Z,87.18
2019-04-30T08:32:01.082Z,88.71
2019-04-30T08:34:29.221Z,87.61
2019-04-30T08:37:12.447Z,87.52
2019-04-30T08:39:29.543Z,87.30
2019-04-30T08:42:00.004Z,86.79
2019-04-30T08:44:27.218Z,88.45
2019-04-30T08:46:54.522Z,88.09
2019-04-30T08:49:22.111Z,88.54
2019-04-30T08:51:50.275Z,86.16
2019-04-30T08:54:19.835Z,84.24
2019-04-30T08:56:47.380Z,84.95
2019-04-30T08:59:14.662Z,84.67
2019-04-30T09:01:41.999Z,84.00
2019-04-30T09:04:10.482Z,83.68
2019-04-30T09:06:38.981Z,84.78
2019-04-30T09:09:13.202Z,84.13
2019-04-30T09:11:51.642Z,84.83
2019-04-30T09:14:09.821Z,84.11
2019-04-30T09:16:39.207Z,85.30
2019-04-30T09:19:06.414Z,84.70
2019-04-30T09:21:33.805Z,84.69
2019-04-30T09:24:01.162Z,85.31
2019-04-30T09:26:29.038Z,85.46
2019-04-30T09:28:56.541Z,84.75
2019-04-30T09:31:23.922Z,82.04
2019-04-30T09:33:51.323Z,79.80
2019-04-30T09:36:20.733Z,80.05
2019-04-30T09:38:48.606Z,79.22
2019-04-30T09:41:16.073Z,80.98
2019-04-30T09:43:43.469Z,80.63
2019-04-30T09:46:21.991Z,81.77
2019-04-30T09:48:40.141Z,80.63
2019-04-30T09:51:09.826Z,79.40
2019-04-30T09:53:36.734Z,81.90
2019-04-30T09:56:04.130Z,81.36
2019-04-30T09:58:31.488Z,83.13
2019-04-30T10:00:59.359Z,84.95
2019-04-30T10:03:27.144Z,84.30
2019-04-30T10:05:54.803Z,84.58
2019-04-30T10:08:22.608Z,84.84
2019-04-30T10:11:09.752Z,84.05
2019-04-30T10:13:37.379Z,86.59
2019-04-30T10:16:12.186Z,85.22
2019-04-30T10:18:39.527Z,84.43
2019-04-30T10:21:06.901Z,84.81
2019-04-30T10:23:36.143Z,83.78
2019-04-30T10:26:03.593Z,83.13
2019-04-30T10:28:33.134Z,85.40
2019-04-30T10:31:00.496Z,84.20
2019-04-30T10:33:28.711Z,80.84
2019-04-30T10:35:56.212Z,78.44
2019-04-30T10:38:23.568Z,78.83
2019-04-30T10:40:50.983Z,82.60
2019-04-30T10:43:19.783Z,83.10
2019-04-30T10:45:48.573Z,82.68
2019-04-30T10:48:16.117Z,81.16
2019-04-30T10:50:43.433Z,83.24
2019-04-30T10:53:12.398Z,80.42
2019-04-30T10:55:39.928Z,83.32
2019-04-30T10:58:07.266Z,85.43
2019-04-30T11:00:38.962Z,85.60
2019-04-30T11:03:17.207Z,83.77
2019-04-30T11:05:39.269Z,82.87
2019-04-30T11:08:06.193Z,81.45
2019-04-30T11:10:33.633Z,81.17
2019-04-30T11:13:00.958Z,81.30
2019-04-30T11:15:29.229Z,82.26
2019-04-30T11:17:56.872Z,82.11
2019-04-30T11:20:24.447Z,80.90
2019-04-30T11:22:54.509Z,82.15
2019-04-30T11:25:21.577Z,80.26
2019-04-30T11:27:50.556Z,79.48
2019-04-30T11:30:23.991Z,82.38
2019-04-30T11:32:48.045Z,81.22
2019-04-30T11:35:15.761Z,80.02
2019-04-30T11:37:43.054Z,79.22
2019-04-30T11:40:12.482Z,81.70
2019-04-30T11:42:39.753Z,81.03
2019-04-30T11:45:08.601Z,80.19
2019-04-30T11:47:37.186Z,79.91
2019-04-30T11:50:12.867Z,81.13
2019-04-30T11:52:40.202Z,80.26
2019-04-30T11:55:09.644Z,80.45
2019-04-30T11:57:37.248Z,79.73
2019-04-30T12:00:08.817Z,80.01
2019-04-30T12:02:45.408Z,79.19
2019-04-30T12:05:14.482Z,80.24
2019-04-30T12:07:53.484Z,79.88
2019-04-30T12:10:43.292Z,80.48
2019-04-30T12:13:26.743Z,80.30
2019-04-30T12:15:55.449Z,80.46
2019-04-30T12:18:22.785Z,80.40
2019-04-30T12:20:50.722Z,81.28
2019-04-30T12:23:19.006Z,80.17
2019-04-30T12:25:46.475Z,79.71
2019-04-30T12:28:13.806Z,81.95
2019-04-30T12:30:41.105Z,80.74
2019-04-30T12:33:09.106Z,80.09
2019-04-30T12:35:36.635Z,79.68
2019-04-30T12:38:03.941Z,79.96
2019-04-30T12:40:32.339Z,80.99
2019-04-30T12:43:00.005Z,80.55
2019-04-30T12:45:29.314Z,79.81
2019-04-30T12:48:00.350Z,80.45
2019-04-30T12:50:35.245Z,79.06
2019-04-30T12:53:06.842Z,78.42
2019-04-30T12:56:00.144Z,79.50
2019-04-30T12:58:25.623Z,78.07
2019-04-30T13:00:52.939Z,77.57
2019-04-30T13:03:20.290Z,78.16
2019-04-30T13:05:50.307Z,73.50
2019-04-30T13:08:17.595Z,73.70
2019-04-30T13:10:46.478Z,73.95
2019-04-30T13:13:14.818Z,76.57
2019-04-30T13:15:42.743Z,78.23
2019-04-30T13:18:10.070Z,78.57
2019-04-30T13:20:39.097Z,78.70
2019-04-30T13:23:08.654Z,78.80
2019-04-30T13:25:48.358Z,79.69
2019-04-30T13:28:09.940Z,79.73
2019-04-30T13:30:39.602Z,78.46
2019-04-30T13:33:20.442Z,79.14
2019-04-30T13:35:48.877Z,79.65
2019-04-30T13:38:30.767Z,78.77
2019-04-30T13:41:18.728Z,79.20
2019-04-30T13:44:10.102Z,78.98
2019-04-30T13:46:39.458Z,80.23
2019-04-30T13:49:06.689Z,76.60
2019-04-30T13:51:34.014Z,76.77
2019-04-30T13:54:01.433Z,78.95
2019-04-30T13:56:28.853Z,79.48
2019-04-30T14:36:50.282Z,76.77
2019-04-30T14:39:20.117Z,77.68
2019-04-30T14:41:50.810Z,76.27
2019-04-30T14:44:21.389Z,72.08
2019-04-30T14:46:58.477Z,69.38
2019-04-30T14:50:01.910Z,72.62
2019-04-30T14:52:24.252Z,72.89
2019-04-30T14:55:25.972Z,76.68
2019-04-30T14:58:31.145Z,78.21
2019-04-30T15:01:19.356Z,74.90
2019-04-30T15:03:46.933Z,74.46
2019-04-30T15:06:14.289Z,77.15
2019-04-30T15:08:41.659Z,78.20
2019-04-30T15:11:09.172Z,77.49
2019-04-30T15:13:36.571Z,78.92
2019-04-30T15:16:04.117Z,79.64
2019-04-30T15:18:31.457Z,80.17
2019-04-30T15:29:16.257Z,80.69
2019-04-30T15:31:43.775Z,81.17
2019-04-30T15:34:12.947Z,81.09
2019-04-30T15:36:41.124Z,80.87
2019-04-30T15:39:43.510Z,80.92
2019-04-30T15:42:12.525Z,79.70
2019-04-30T15:44:42.637Z,79.71
2019-04-30T15:47:09.715Z,79.24
2019-04-30T15:49:37.119Z,79.16
2019-04-30T15:52:04.764Z,79.10
2019-04-30T15:54:32.177Z,79.42
2019-04-30T15:57:00.494Z,78.69
2019-04-30T15:59:45.681Z,78.79
2019-04-30T16:02:21.322Z,80.22
2019-04-30T16:05:08.232Z,80.96
2019-04-30T16:07:40.743Z,80.47
2019-04-30T16:10:28.529Z,77.90
2019-04-30T16:13:02.935Z,77.53
2019-04-30T16:15:30.387Z,80.75
2019-04-30T16:17:59.457Z,80.32
2019-04-30T16:20:29.857Z,80.91
2019-04-30T16:22:56.111Z,81.72
2019-04-30T16:25:23.511Z,81.67
2019-04-30T16:27:51.674Z,82.07
2019-04-30T16:30:19.632Z,83.01
2019-04-30T16:32:50.541Z,83.31
2019-04-30T16:35:16.671Z,84.34
2019-04-30T16:37:44.015Z,84.81
2019-04-30T16:40:12.912Z,84.03
2019-04-30T16:42:40.241Z,84.13
2019-04-30T16:45:09.324Z,85.40
2019-04-30T16:47:36.934Z,84.28
2019-04-30T16:50:04.931Z,84.61
2019-04-30T16:52:33.343Z,84.53
2019-04-30T16:55:00.757Z,84.24
2019-04-30T16:57:30.409Z,83.46
2019-04-30T16:59:59.389Z,84.11
2019-04-30T17:02:31.916Z,83.53
2019-04-30T17:05:04.762Z,82.48
2019-04-30T17:07:43.687Z,84.32
2019-04-30T17:10:29.354Z,84.64
2019-04-30T17:13:16.451Z,83.51
2019-04-30T17:15:44.031Z,86.36
2019-04-30T17:18:12.227Z,86.60
2019-04-30T17:20:40.585Z,87.01
2019-04-30T17:23:09.472Z,86.81
2019-04-30T17:25:37.120Z,87.03
2019-04-30T17:28:04.983Z,86.06
2019-04-30T17:30:32.503Z,85.88
2019-04-30T17:33:00.654Z,85.25
2019-04-30T17:35:28.905Z,85.20
2019-04-30T17:37:56.923Z,85.87
2019-04-30T17:40:24.595Z,87.42
2019-04-30T17:42:52.241Z,88.30
2019-04-30T17:45:20.056Z,88.52
2019-04-30T17:47:48.888Z,88.76
2019-04-30T17:50:18.792Z,89.10
2019-04-30T17:52:46.599Z,89.38
2019-04-30T17:55:14.739Z,89.29
2019-04-30T17:57:42.352Z,89.68
2019-04-30T18:00:19.323Z,89.66
2019-04-30T18:02:44.362Z,89.88
2019-04-30T18:05:12.281Z,88.30
2019-04-30T18:07:40.082Z,87.51
2019-04-30T18:10:13.060Z,89.33
2019-04-30T18:12:40.753Z,89.39
2019-04-30T18:15:14.648Z,90.23
2019-04-30T18:17:44.247Z,90.76
2019-04-30T18:20:30.215Z,90.99
2019-04-30T18:23:23.865Z,90.51
2019-04-30T18:25:59.187Z,89.84
2019-04-30T18:28:29.164Z,90.08
2019-04-30T18:30:59.751Z,90.04
2019-04-30T18:33:27.479Z,90.19
2019-04-30T18:35:59.655Z,90.60
2019-04-30T18:38:31.147Z,90.26
2019-04-30T18:40:59.480Z,89.83
2019-04-30T18:43:28.884Z,89.23
2019-04-30T18:46:01.874Z,89.47
2019-04-30T18:48:30.504Z,89.55
2019-04-30T18:51:15.959Z,90.09
2019-04-30T18:53:33.149Z,89.92
2019-04-30T18:56:01.375Z,89.47
2019-04-30T18:58:43.125Z,89.48
2019-04-30T19:01:12.085Z,87.76
2019-04-30T19:03:43.005Z,87.42
2019-04-30T19:06:23.907Z,84.70
2019-04-30T19:09:09.665Z,78.55
2019-04-30T19:11:46.427Z,77.21
2019-04-30T19:14:36.719Z,83.35
2019-04-30T19:17:49.748Z,75.51
2019-04-30T19:20:22.613Z,80.95
2019-04-30T19:22:53.401Z,79.66
2019-04-30T19:25:23.883Z,86.00
2019-04-30T19:27:51.873Z,86.22
2019-04-30T19:30:21.391Z,85.63
2019-04-30T19:32:54.349Z,85.03
2019-04-30T19:35:26.947Z,83.88
2019-04-30T19:38:00.424Z,83.90
2019-04-30T19:40:28.653Z,87.04
2019-04-30T19:42:56.985Z,88.32
2019-04-30T19:45:30.553Z,89.52
2019-04-30T19:48:02.292Z,89.84
2019-04-30T19:50:31.315Z,90.06
2019-04-30T19:52:59.169Z,90.83
2019-04-30T19:55:28.601Z,91.33
2019-04-30T19:58:01.462Z,91.59
2019-04-30T20:00:34.692Z,90.96
2019-04-30T20:03:02.732Z,90.36
2019-04-30T20:05:32.627Z,90.07
2019-04-30T20:08:02.964Z,90.77
2019-04-30T20:10:30.972Z,90.42
2019-04-30T20:12:58.903Z,90.65
2019-04-30T20:15:29.843Z,91.19
2019-04-30T20:18:03.682Z,90.79
2019-04-30T20:20:39.907Z,89.60
2019-04-30T20:23:08.050Z,88.81
2019-04-30T20:25:36.419Z,88.38
2019-04-30T20:28:04.930Z,87.99
2019-04-30T20:30:33.045Z,87.81
2019-04-30T20:33:00.845Z,88.90
2019-04-30T20:35:29.276Z,89.05
2019-04-30T20:38:34.872Z,90.34
2019-04-30T20:41:03.570Z,90.87
2019-04-30T20:43:33.394Z,90.11
2019-04-30T20:46:02.767Z,91.46
2019-04-30T20:48:32.236Z,92.17
2019-04-30T20:51:01.553Z,91.59
2019-04-30T20:53:29.311Z,90.90
2019-04-30T20:55:59.192Z,91.10
2019-04-30T20:58:28.385Z,90.10
2019-04-30T21:01:03.605Z,90.83
2019-04-30T21:03:29.562Z,91.03
2019-04-30T21:06:00.345Z,91.26
2019-04-30T21:08:28.374Z,90.98
2019-04-30T21:10:55.895Z,89.77
2019-04-30T21:13:23.348Z,89.77
2019-04-30T21:15:50.760Z,89.25
2019-04-30T21:18:19.548Z,88.50
2019-04-30T21:20:47.298Z,88.50
2019-04-30T21:23:14.719Z,88.71
2019-04-30T21:25:42.149Z,89.50
2019-04-30T21:28:10.213Z,89.36
2019-04-30T21:30:37.631Z,88.96
2019-04-30T21:33:26.118Z,88.49
2019-04-30T21:35:58.772Z,90.00
2019-04-30T21:38:26.216Z,89.08
2019-04-30T21:40:53.876Z,88.06
2019-04-30T21:43:21.193Z,88.04
2019-04-30T21:45:49.374Z,89.23
2019-04-30T21:48:18.970Z,87.79
2019-04-30T21:50:46.047Z,85.79
2019-04-30T21:53:13.403Z,87.00
2019-04-30T21:55:40.767Z,86.20
2019-04-30T21:58:09.567Z,86.21
2019-04-30T22:00:55.651Z,85.24
2019-04-30T22:03:22.992Z,87.21
2019-04-30T22:05:50.421Z,87.52
2019-04-30T22:08:18.885Z,87.55
2019-04-30T22:10:46.350Z,87.07
2019-04-30T22:13:13.774Z,86.60
2019-04-30T22:15:41.130Z,86.71
2019-04-30T22:18:08.485Z,87.48
2019-04-30T22:20:36.074Z,88.04
2019-04-30T22:23:03.491Z,88.47
2019-04-30T22:25:30.846Z,89.25
2019-04-30T22:27:58.213Z,88.25
2019-04-30T22:30:25.672Z,87.61
2019-04-30T22:32:53.060Z,87.93
2019-04-30T22:35:38.911Z,87.35
2019-04-30T22:38:09.260Z,88.95
2019-04-30T22:40:38.839Z,88.25
2019-04-30T22:43:06.121Z,87.45
2019-04-30T22:45:40.529Z,88.92
2019-04-30T22:48:08.863Z,88.25
2019-04-30T22:50:36.535Z,89.08
2019-04-30T22:53:03.920Z,89.57
2019-04-30T22:55:31.228Z,89.70
2019-04-30T22:57:58.553Z,89.24
2019-04-30T23:00:35.911Z,89.13
2019-04-30T23:03:06.997Z,88.79
2019-04-30T23:05:34.370Z,89.57
2019-04-30T23:08:01.781Z,88.50
2019-04-30T23:10:29.144Z,88.29
2019-04-30T23:12:56.489Z,86.89
2019-04-30T23:15:23.985Z,87.29
2019-04-30T23:17:51.325Z,89.37
2019-04-30T23:20:18.631Z,88.49
2019-04-30T23:22:46.018Z,87.31
2019-04-30T23:25:13.547Z,87.53
2019-04-30T23:27:40.886Z,89.12
2019-04-30T23:30:08.601Z,89.32
2019-04-30T23:32:35.973Z,89.27
2019-04-30T23:35:03.591Z,89.00
2019-04-30T23:37:30.915Z,89.41
2019-04-30T23:40:26.793Z,88.51
2019-04-30T23:42:54.211Z,87.43
2019-04-30T23:45:21.650Z,88.48
2019-04-30T23:47:49.130Z,89.23
2019-04-30T23:50:16.456Z,89.83
2019-04-30T23:52:43.851Z,89.75
2019-04-30T23:55:11.574Z,88.70
2019-04-30T23:57:38.872Z,89.03
